sensor_id;sensor_type;location;lat;lon;timestamp;temperature;humidity
11922;DHT22;6021;51.182;3.160;2023-08-17T00:00:40;17.40;99.90
11922;DHT22;6021;51.182;3.160;2023-08-17T00:03:08;17.40;99.90
11922;DHT22;6021;51.182;3.160;2023-08-17T00:05:36;17.40;99.90
11922;DHT22;6021;51.182;3.160;2023-08-17T00:08:05;17.40;99.90
11922;DHT22;6021;51.182;3.160;2023-08-17T00:10:33;17.40;99.90
11922;DHT22;6021;51.182;3.160;2023-08-17T00:13:01;17.50;99.90
11922;DHT22;6021;51.182;3.160;2023-08-17T00:15:31;17.50;99.90
11922;DHT22;6021;51.182;3.160;2023-08-17T00:17:59;17.40;99.90
11922;DHT22;6021;51.182;3.160;2023-08-17T00:20:28;17.50;99.90
11922;DHT22;6021;51.182;3.160;2023-08-17T00:22:56;17.50;99.90
11922;DHT22;6021;51.182;3.160;2023-08-17T00:25:24;17.50;99.90
11922;DHT22;6021;51.182;3.160;2023-08-17T00:27:53;17.50;99.90
11922;DHT22;6021;51.182;3.160;2023-08-17T00:30:21;17.50;99.90
11922;DHT22;6021;51.182;3.160;2023-08-17T00:32:50;17.50;99.90
11922;DHT22;6021;51.182;3.160;2023-08-17T00:35:18;17.50;99.90
11922;DHT22;6021;51.182;3.160;2023-08-17T00:37:46;17.40;99.90
11922;DHT22;6021;51.182;3.160;2023-08-17T00:40:15;17.50;99.90
11922;DHT22;6021;51.182;3.160;2023-08-17T00:42:43;17.40;99.90
11922;DHT22;6021;51.182;3.160;2023-08-17T00:45:11;17.40;99.90
11922;DHT22;6021;51.182;3.160;2023-08-17T00:47:40;17.40;99.90
11922;DHT22;6021;51.182;3.160;2023-08-17T00:50:08;17.40;99.90
11922;DHT22;6021;51.182;3.160;2023-08-17T00:52:38;17.50;99.90
11922;DHT22;6021;51.182;3.160;2023-08-17T00:55:07;17.50;99.90
11922;DHT22;6021;51.182;3.160;2023-08-17T00:57:37;17.50;99.90
11922;DHT22;6021;51.182;3.160;2023-08-17T01:00:06;17.50;99.90
11922;DHT22;6021;51.182;3.160;2023-08-17T01:02:35;17.50;99.90
11922;DHT22;6021;51.182;3.160;2023-08-17T01:05:03;17.50;99.90
11922;DHT22;6021;51.182;3.160;2023-08-17T01:07:33;17.40;99.90
11922;DHT22;6021;51.182;3.160;2023-08-17T01:10:02;17.40;99.90
11922;DHT22;6021;51.182;3.160;2023-08-17T01:12:32;17.40;99.90
11922;DHT22;6021;51.182;3.160;2023-08-17T01:15:12;17.40;99.90
11922;DHT22;6021;51.182;3.160;2023-08-17T01:20:16;17.40;99.90
11922;DHT22;6021;51.182;3.160;2023-08-17T01:22:48;17.30;99.90
11922;DHT22;6021;51.182;3.160;2023-08-17T01:25:16;17.30;99.90
11922;DHT22;6021;51.182;3.160;2023-08-17T01:27:45;17.30;99.90
11922;DHT22;6021;51.182;3.160;2023-08-17T01:30:15;17.30;99.90
11922;DHT22;6021;51.182;3.160;2023-08-17T01:32:57;17.30;99.90
11922;DHT22;6021;51.182;3.160;2023-08-17T01:38:14;17.20;99.90
11922;DHT22;6021;51.182;3.160;2023-08-17T01:40:42;17.20;99.90
11922;DHT22;6021;51.182;3.160;2023-08-17T01:43:15;17.20;99.90
11922;DHT22;6021;51.182;3.160;2023-08-17T01:45:44;17.20;99.90
11922;DHT22;6021;51.182;3.160;2023-08-17T01:48:13;17.20;99.90
11922;DHT22;6021;51.182;3.160;2023-08-17T01:50:41;17.10;99.90
11922;DHT22;6021;51.182;3.160;2023-08-17T01:53:09;17.10;99.90
11922;DHT22;6021;51.182;3.160;2023-08-17T01:55:39;17.10;99.90
11922;DHT22;6021;51.182;3.160;2023-08-17T01:58:07;17.10;99.90
11922;DHT22;6021;51.182;3.160;2023-08-17T02:00:35;17.10;99.90
11922;DHT22;6021;51.182;3.160;2023-08-17T02:03:04;17.00;99.90
11922;DHT22;6021;51.182;3.160;2023-08-17T02:05:32;17.00;99.90
11922;DHT22;6021;51.182;3.160;2023-08-17T02:08:00;17.00;99.90
11922;DHT22;6021;51.182;3.160;2023-08-17T02:10:29;17.00;99.90
11922;DHT22;6021;51.182;3.160;2023-08-17T02:12:57;17.00;99.90
11922;DHT22;6021;51.182;3.160;2023-08-17T02:15:26;16.90;99.90
11922;DHT22;6021;51.182;3.160;2023-08-17T02:17:54;16.90;99.90
11922;DHT22;6021;51.182;3.160;2023-08-17T02:20:22;16.90;99.90
11922;DHT22;6021;51.182;3.160;2023-08-17T02:22:51;16.80;99.90
11922;DHT22;6021;51.182;3.160;2023-08-17T02:25:19;16.90;99.90
11922;DHT22;6021;51.182;3.160;2023-08-17T02:27:47;16.90;99.90
11922;DHT22;6021;51.182;3.160;2023-08-17T02:30:16;16.80;99.90
11922;DHT22;6021;51.182;3.160;2023-08-17T02:32:44;16.90;99.90
11922;DHT22;6021;51.182;3.160;2023-08-17T02:35:13;16.80;99.90
11922;DHT22;6021;51.182;3.160;2023-08-17T02:37:41;16.80;99.90
11922;DHT22;6021;51.182;3.160;2023-08-17T02:40:10;16.80;99.90
11922;DHT22;6021;51.182;3.160;2023-08-17T02:42:38;16.70;99.90
11922;DHT22;6021;51.182;3.160;2023-08-17T02:45:09;16.70;99.90
11922;DHT22;6021;51.182;3.160;2023-08-17T02:47:37;16.70;99.90
11922;DHT22;6021;51.182;3.160;2023-08-17T02:50:06;16.70;99.90
11922;DHT22;6021;51.182;3.160;2023-08-17T02:52:34;16.70;99.90
11922;DHT22;6021;51.182;3.160;2023-08-17T02:55:03;16.70;99.90
11922;DHT22;6021;51.182;3.160;2023-08-17T02:57:31;16.70;99.90
11922;DHT22;6021;51.182;3.160;2023-08-17T03:00:00;16.70;99.90
11922;DHT22;6021;51.182;3.160;2023-08-17T03:02:28;16.70;99.90
11922;DHT22;6021;51.182;3.160;2023-08-17T03:04:56;16.60;99.90
11922;DHT22;6021;51.182;3.160;2023-08-17T03:07:25;16.60;99.90
11922;DHT22;6021;51.182;3.160;2023-08-17T03:09:53;16.70;99.90
11922;DHT22;6021;51.182;3.160;2023-08-17T03:12:21;16.60;99.90
11922;DHT22;6021;51.182;3.160;2023-08-17T03:14:50;16.60;99.90
11922;DHT22;6021;51.182;3.160;2023-08-17T03:17:18;16.60;99.90
11922;DHT22;6021;51.182;3.160;2023-08-17T03:19:46;16.60;99.90
11922;DHT22;6021;51.182;3.160;2023-08-17T03:22:14;16.70;99.90
11922;DHT22;6021;51.182;3.160;2023-08-17T03:24:43;16.70;99.90
11922;DHT22;6021;51.182;3.160;2023-08-17T03:27:11;16.70;99.90
11922;DHT22;6021;51.182;3.160;2023-08-17T03:29:39;16.70;99.90
11922;DHT22;6021;51.182;3.160;2023-08-17T03:32:07;16.70;99.90
11922;DHT22;6021;51.182;3.160;2023-08-17T03:34:36;16.70;99.90
11922;DHT22;6021;51.182;3.160;2023-08-17T03:37:05;16.70;99.90
11922;DHT22;6021;51.182;3.160;2023-08-17T03:39:34;16.70;99.90
11922;DHT22;6021;51.182;3.160;2023-08-17T03:42:02;16.70;99.90
11922;DHT22;6021;51.182;3.160;2023-08-17T03:44:30;16.70;99.90
11922;DHT22;6021;51.182;3.160;2023-08-17T03:46:58;16.60;99.90
11922;DHT22;6021;51.182;3.160;2023-08-17T03:49:27;16.60;99.90
11922;DHT22;6021;51.182;3.160;2023-08-17T03:51:55;16.70;99.90
11922;DHT22;6021;51.182;3.160;2023-08-17T03:54:24;16.60;99.90
11922;DHT22;6021;51.182;3.160;2023-08-17T03:56:52;16.60;99.90
11922;DHT22;6021;51.182;3.160;2023-08-17T03:59:20;16.60;99.90
11922;DHT22;6021;51.182;3.160;2023-08-17T04:01:50;16.50;99.90
11922;DHT22;6021;51.182;3.160;2023-08-17T04:04:19;16.50;99.90
11922;DHT22;6021;51.182;3.160;2023-08-17T04:06:47;16.50;99.90
11922;DHT22;6021;51.182;3.160;2023-08-17T04:09:15;16.50;99.90
11922;DHT22;6021;51.182;3.160;2023-08-17T04:11:45;16.50;99.90
11922;DHT22;6021;51.182;3.160;2023-08-17T04:14:13;16.40;99.90
11922;DHT22;6021;51.182;3.160;2023-08-17T04:16:42;16.40;99.90
11922;DHT22;6021;51.182;3.160;2023-08-17T04:19:10;16.50;99.90
11922;DHT22;6021;51.182;3.160;2023-08-17T04:21:38;16.40;99.90
11922;DHT22;6021;51.182;3.160;2023-08-17T04:24:06;16.40;99.90
11922;DHT22;6021;51.182;3.160;2023-08-17T04:26:35;16.40;99.90
11922;DHT22;6021;51.182;3.160;2023-08-17T04:29:03;16.40;99.90
11922;DHT22;6021;51.182;3.160;2023-08-17T04:31:32;16.40;99.90
11922;DHT22;6021;51.182;3.160;2023-08-17T04:34:00;16.40;99.90
11922;DHT22;6021;51.182;3.160;2023-08-17T04:36:28;16.40;99.90
11922;DHT22;6021;51.182;3.160;2023-08-17T04:38:57;16.40;99.90
11922;DHT22;6021;51.182;3.160;2023-08-17T04:41:25;16.30;99.90
11922;DHT22;6021;51.182;3.160;2023-08-17T04:43:53;16.30;99.90
11922;DHT22;6021;51.182;3.160;2023-08-17T04:46:22;16.30;99.90
11922;DHT22;6021;51.182;3.160;2023-08-17T04:48:50;16.30;99.90
11922;DHT22;6021;51.182;3.160;2023-08-17T04:51:19;16.30;99.90
11922;DHT22;6021;51.182;3.160;2023-08-17T04:53:48;16.30;99.90
11922;DHT22;6021;51.182;3.160;2023-08-17T04:56:16;16.30;99.90
11922;DHT22;6021;51.182;3.160;2023-08-17T04:58:44;16.30;99.90
11922;DHT22;6021;51.182;3.160;2023-08-17T05:01:13;16.30;99.90
11922;DHT22;6021;51.182;3.160;2023-08-17T05:03:41;16.30;99.90
11922;DHT22;6021;51.182;3.160;2023-08-17T05:06:09;16.30;99.90
11922;DHT22;6021;51.182;3.160;2023-08-17T05:08:38;16.30;99.90
11922;DHT22;6021;51.182;3.160;2023-08-17T05:11:06;16.30;99.90
11922;DHT22;6021;51.182;3.160;2023-08-17T05:13:35;16.30;99.90
11922;DHT22;6021;51.182;3.160;2023-08-17T05:16:03;16.40;99.90
11922;DHT22;6021;51.182;3.160;2023-08-17T05:18:32;16.40;99.90
11922;DHT22;6021;51.182;3.160;2023-08-17T05:21:00;16.40;99.90
11922;DHT22;6021;51.182;3.160;2023-08-17T05:23:29;16.60;99.90
11922;DHT22;6021;51.182;3.160;2023-08-17T05:25:57;16.40;99.90
11922;DHT22;6021;51.182;3.160;2023-08-17T05:28:26;16.40;99.90
11922;DHT22;6021;51.182;3.160;2023-08-17T05:30:54;16.40;99.90
11922;DHT22;6021;51.182;3.160;2023-08-17T05:33:22;16.50;99.90
11922;DHT22;6021;51.182;3.160;2023-08-17T05:35:54;16.50;99.90
11922;DHT22;6021;51.182;3.160;2023-08-17T05:38:23;16.50;99.90
11922;DHT22;6021;51.182;3.160;2023-08-17T05:40:57;16.50;99.90
11922;DHT22;6021;51.182;3.160;2023-08-17T05:43:26;16.50;99.90
11922;DHT22;6021;51.182;3.160;2023-08-17T05:45:56;16.50;99.90
11922;DHT22;6021;51.182;3.160;2023-08-17T05:48:24;16.50;99.90
11922;DHT22;6021;51.182;3.160;2023-08-17T05:50:52;16.50;99.90
11922;DHT22;6021;51.182;3.160;2023-08-17T05:53:21;16.60;99.90
11922;DHT22;6021;51.182;3.160;2023-08-17T05:55:49;16.60;99.90
11922;DHT22;6021;51.182;3.160;2023-08-17T05:58:17;16.60;99.90
11922;DHT22;6021;51.182;3.160;2023-08-17T06:00:46;16.60;99.90
11922;DHT22;6021;51.182;3.160;2023-08-17T06:03:14;16.60;99.90
11922;DHT22;6021;51.182;3.160;2023-08-17T06:05:43;16.70;99.90
11922;DHT22;6021;51.182;3.160;2023-08-17T06:08:11;16.70;99.90
11922;DHT22;6021;51.182;3.160;2023-08-17T06:10:39;16.70;99.90
11922;DHT22;6021;51.182;3.160;2023-08-17T06:13:08;16.70;99.90
11922;DHT22;6021;51.182;3.160;2023-08-17T06:15:36;16.80;99.90
11922;DHT22;6021;51.182;3.160;2023-08-17T06:18:05;16.80;99.90
11922;DHT22;6021;51.182;3.160;2023-08-17T06:20:33;16.90;99.90
11922;DHT22;6021;51.182;3.160;2023-08-17T06:23:01;17.00;99.90
11922;DHT22;6021;51.182;3.160;2023-08-17T06:25:30;17.00;99.90
11922;DHT22;6021;51.182;3.160;2023-08-17T06:27:58;17.10;99.90
11922;DHT22;6021;51.182;3.160;2023-08-17T06:30:26;17.00;99.90
11922;DHT22;6021;51.182;3.160;2023-08-17T06:32:55;17.00;99.90
11922;DHT22;6021;51.182;3.160;2023-08-17T06:35:23;17.00;99.90
11922;DHT22;6021;51.182;3.160;2023-08-17T06:37:51;17.10;99.90
11922;DHT22;6021;51.182;3.160;2023-08-17T06:40:21;17.10;99.90
11922;DHT22;6021;51.182;3.160;2023-08-17T06:42:50;17.10;99.90
11922;DHT22;6021;51.182;3.160;2023-08-17T06:45:19;17.20;99.90
11922;DHT22;6021;51.182;3.160;2023-08-17T06:47:48;17.20;99.90
11922;DHT22;6021;51.182;3.160;2023-08-17T06:50:16;17.20;99.90
11922;DHT22;6021;51.182;3.160;2023-08-17T06:52:44;17.30;99.90
11922;DHT22;6021;51.182;3.160;2023-08-17T06:55:13;17.30;99.90
11922;DHT22;6021;51.182;3.160;2023-08-17T06:57:43;17.40;99.90
11922;DHT22;6021;51.182;3.160;2023-08-17T07:00:11;17.50;99.90
11922;DHT22;6021;51.182;3.160;2023-08-17T07:02:40;17.50;99.90
11922;DHT22;6021;51.182;3.160;2023-08-17T07:05:10;17.50;99.90
11922;DHT22;6021;51.182;3.160;2023-08-17T07:07:38;17.60;99.90
11922;DHT22;6021;51.182;3.160;2023-08-17T07:10:07;17.60;99.90
11922;DHT22;6021;51.182;3.160;2023-08-17T07:12:36;17.60;99.90
11922;DHT22;6021;51.182;3.160;2023-08-17T07:15:05;17.60;99.90
11922;DHT22;6021;51.182;3.160;2023-08-17T07:17:34;17.60;99.90
11922;DHT22;6021;51.182;3.160;2023-08-17T07:20:04;17.70;99.90
11922;DHT22;6021;51.182;3.160;2023-08-17T07:22:34;17.70;99.90
11922;DHT22;6021;51.182;3.160;2023-08-17T07:25:03;17.80;99.90
11922;DHT22;6021;51.182;3.160;2023-08-17T07:27:31;17.80;99.90
11922;DHT22;6021;51.182;3.160;2023-08-17T07:30:00;17.90;99.90
11922;DHT22;6021;51.182;3.160;2023-08-17T07:32:28;17.90;99.90
11922;DHT22;6021;51.182;3.160;2023-08-17T07:34:57;18.00;99.90
11922;DHT22;6021;51.182;3.160;2023-08-17T07:37:25;18.00;99.90
11922;DHT22;6021;51.182;3.160;2023-08-17T07:39:55;18.00;99.90
11922;DHT22;6021;51.182;3.160;2023-08-17T07:42:24;18.00;99.90
11922;DHT22;6021;51.182;3.160;2023-08-17T07:44:52;18.10;99.90
11922;DHT22;6021;51.182;3.160;2023-08-17T07:47:20;18.20;99.90
11922;DHT22;6021;51.182;3.160;2023-08-17T07:49:49;18.20;99.90
11922;DHT22;6021;51.182;3.160;2023-08-17T07:52:17;18.50;93.40
11922;DHT22;6021;51.182;3.160;2023-08-17T07:54:46;18.60;79.40
11922;DHT22;6021;51.182;3.160;2023-08-17T07:57:14;18.60;68.10
11922;DHT22;6021;51.182;3.160;2023-08-17T07:59:43;18.60;55.50
11922;DHT22;6021;51.182;3.160;2023-08-17T08:02:11;18.60;44.50
11922;DHT22;6021;51.182;3.160;2023-08-17T08:04:39;18.50;42.50
11922;DHT22;6021;51.182;3.160;2023-08-17T08:07:08;18.50;47.10
11922;DHT22;6021;51.182;3.160;2023-08-17T08:09:36;18.50;47.60
11922;DHT22;6021;51.182;3.160;2023-08-17T08:12:06;18.50;59.90
11922;DHT22;6021;51.182;3.160;2023-08-17T08:14:36;18.60;31.30
11922;DHT22;6021;51.182;3.160;2023-08-17T08:17:04;18.60;14.50
11922;DHT22;6021;51.182;3.160;2023-08-17T08:19:32;18.60;11.10
11922;DHT22;6021;51.182;3.160;2023-08-17T08:22:02;18.60;18.80
11922;DHT22;6021;51.182;3.160;2023-08-17T08:24:30;18.60;13.00
11922;DHT22;6021;51.182;3.160;2023-08-17T08:27:00;18.80;4.30
11922;DHT22;6021;51.182;3.160;2023-08-17T08:29:29;18.80;3.40
11922;DHT22;6021;51.182;3.160;2023-08-17T08:31:57;18.80;1.50
11922;DHT22;6021;51.182;3.160;2023-08-17T08:34:27;18.80;6.80
11922;DHT22;6021;51.182;3.160;2023-08-17T08:36:55;18.90;10.40
11922;DHT22;6021;51.182;3.160;2023-08-17T08:39:25;18.90;1.00
11922;DHT22;6021;51.182;3.160;2023-08-17T08:41:55;19.00;7.10
11922;DHT22;6021;51.182;3.160;2023-08-17T08:44:23;19.10;1.00
11922;DHT22;6021;51.182;3.160;2023-08-17T08:46:53;19.10;1.00
11922;DHT22;6021;51.182;3.160;2023-08-17T08:49:23;19.10;1.00
11922;DHT22;6021;51.182;3.160;2023-08-17T08:51:53;19.10;1.00
11922;DHT22;6021;51.182;3.160;2023-08-17T08:54:24;19.10;1.00
11922;DHT22;6021;51.182;3.160;2023-08-17T08:56:56;19.20;1.00
11922;DHT22;6021;51.182;3.160;2023-08-17T08:59:24;19.20;1.00
11922;DHT22;6021;51.182;3.160;2023-08-17T09:01:55;19.20;1.00
11922;DHT22;6021;51.182;3.160;2023-08-17T09:04:25;19.30;1.00
11922;DHT22;6021;51.182;3.160;2023-08-17T09:06:54;19.30;1.00
11922;DHT22;6021;51.182;3.160;2023-08-17T09:09:23;19.40;5.40
11922;DHT22;6021;51.182;3.160;2023-08-17T09:11:51;19.30;1.00
11922;DHT22;6021;51.182;3.160;2023-08-17T09:14:20;19.40;2.60
11922;DHT22;6021;51.182;3.160;2023-08-17T09:16:48;19.40;8.60
11922;DHT22;6021;51.182;3.160;2023-08-17T09:19:18;19.50;1.00
11922;DHT22;6021;51.182;3.160;2023-08-17T09:21:48;19.50;1.00
11922;DHT22;6021;51.182;3.160;2023-08-17T09:24:16;19.50;1.00
11922;DHT22;6021;51.182;3.160;2023-08-17T09:26:45;19.60;1.00
11922;DHT22;6021;51.182;3.160;2023-08-17T09:29:17;19.70;1.00
11922;DHT22;6021;51.182;3.160;2023-08-17T09:31:46;19.70;1.00
11922;DHT22;6021;51.182;3.160;2023-08-17T09:34:15;19.80;1.00
11922;DHT22;6021;51.182;3.160;2023-08-17T09:36:47;19.90;1.00
11922;DHT22;6021;51.182;3.160;2023-08-17T09:39:16;19.90;1.00
11922;DHT22;6021;51.182;3.160;2023-08-17T09:41:45;19.90;1.00
11922;DHT22;6021;51.182;3.160;2023-08-17T09:44:14;19.90;1.00
11922;DHT22;6021;51.182;3.160;2023-08-17T09:46:43;20.00;1.00
11922;DHT22;6021;51.182;3.160;2023-08-17T09:49:11;20.00;1.00
11922;DHT22;6021;51.182;3.160;2023-08-17T09:51:43;20.00;1.00
11922;DHT22;6021;51.182;3.160;2023-08-17T09:54:24;20.00;1.00
11922;DHT22;6021;51.182;3.160;2023-08-17T09:56:57;20.10;1.00
11922;DHT22;6021;51.182;3.160;2023-08-17T09:59:25;20.10;1.00
11922;DHT22;6021;51.182;3.160;2023-08-17T10:01:54;20.30;1.00
11922;DHT22;6021;51.182;3.160;2023-08-17T10:04:23;20.40;1.00
11922;DHT22;6021;51.182;3.160;2023-08-17T10:06:56;20.50;1.00
11922;DHT22;6021;51.182;3.160;2023-08-17T10:09:24;20.50;1.00
11922;DHT22;6021;51.182;3.160;2023-08-17T10:11:56;20.50;1.00
11922;DHT22;6021;51.182;3.160;2023-08-17T10:14:29;20.50;1.00
11922;DHT22;6021;51.182;3.160;2023-08-17T10:17:07;20.50;1.00
11922;DHT22;6021;51.182;3.160;2023-08-17T10:19:46;20.60;1.00
11922;DHT22;6021;51.182;3.160;2023-08-17T10:22:41;20.70;1.00
11922;DHT22;6021;51.182;3.160;2023-08-17T10:25:07;20.80;1.00
11922;DHT22;6021;51.182;3.160;2023-08-17T10:27:44;20.80;1.00
11922;DHT22;6021;51.182;3.160;2023-08-17T10:30:10;20.80;1.00
11922;DHT22;6021;51.182;3.160;2023-08-17T10:32:40;20.80;1.00
11922;DHT22;6021;51.182;3.160;2023-08-17T10:35:10;20.80;1.00
11922;DHT22;6021;51.182;3.160;2023-08-17T10:37:39;20.70;1.00
11922;DHT22;6021;51.182;3.160;2023-08-17T10:40:08;20.70;1.00
11922;DHT22;6021;51.182;3.160;2023-08-17T10:42:37;20.80;1.00
11922;DHT22;6021;51.182;3.160;2023-08-17T10:45:26;20.80;1.00
11922;DHT22;6021;51.182;3.160;2023-08-17T10:50:39;20.90;1.00
11922;DHT22;6021;51.182;3.160;2023-08-17T10:53:12;21.00;1.00
11922;DHT22;6021;51.182;3.160;2023-08-17T10:55:42;21.10;1.00
11922;DHT22;6021;51.182;3.160;2023-08-17T10:58:11;21.10;1.00
11922;DHT22;6021;51.182;3.160;2023-08-17T11:00:40;21.20;1.00
11922;DHT22;6021;51.182;3.160;2023-08-17T11:03:18;21.20;1.00
11922;DHT22;6021;51.182;3.160;2023-08-17T11:05:52;21.30;1.00
11922;DHT22;6021;51.182;3.160;2023-08-17T11:08:32;21.30;1.00
11922;DHT22;6021;51.182;3.160;2023-08-17T11:11:06;21.20;1.00
11922;DHT22;6021;51.182;3.160;2023-08-17T11:13:41;21.40;1.00
11922;DHT22;6021;51.182;3.160;2023-08-17T11:16:06;21.30;1.00
11922;DHT22;6021;51.182;3.160;2023-08-17T11:18:35;21.30;1.00
11922;DHT22;6021;51.182;3.160;2023-08-17T11:21:05;21.30;1.00
11922;DHT22;6021;51.182;3.160;2023-08-17T11:23:35;21.40;1.00
11922;DHT22;6021;51.182;3.160;2023-08-17T11:26:04;21.40;1.00
11922;DHT22;6021;51.182;3.160;2023-08-17T11:28:34;21.40;1.00
11922;DHT22;6021;51.182;3.160;2023-08-17T11:31:06;21.40;1.00
11922;DHT22;6021;51.182;3.160;2023-08-17T11:33:36;21.40;1.00
11922;DHT22;6021;51.182;3.160;2023-08-17T11:36:07;21.40;1.00
11922;DHT22;6021;51.182;3.160;2023-08-17T11:38:38;21.50;1.00
11922;DHT22;6021;51.182;3.160;2023-08-17T11:41:07;21.50;1.00
11922;DHT22;6021;51.182;3.160;2023-08-17T11:43:37;21.60;1.00
11922;DHT22;6021;51.182;3.160;2023-08-17T11:46:05;21.70;1.00
11922;DHT22;6021;51.182;3.160;2023-08-17T11:48:34;21.60;1.00
11922;DHT22;6021;51.182;3.160;2023-08-17T11:51:02;21.70;1.00
11922;DHT22;6021;51.182;3.160;2023-08-17T11:53:37;21.80;1.00
11922;DHT22;6021;51.182;3.160;2023-08-17T11:56:07;21.90;1.00
11922;DHT22;6021;51.182;3.160;2023-08-17T11:58:42;21.80;1.00
11922;DHT22;6021;51.182;3.160;2023-08-17T12:01:12;21.70;1.00
11922;DHT22;6021;51.182;3.160;2023-08-17T12:03:42;21.70;1.00
11922;DHT22;6021;51.182;3.160;2023-08-17T12:06:11;21.80;1.00
11922;DHT22;6021;51.182;3.160;2023-08-17T12:08:44;21.80;1.00
11922;DHT22;6021;51.182;3.160;2023-08-17T12:11:13;21.80;1.00
11922;DHT22;6021;51.182;3.160;2023-08-17T12:13:41;21.80;1.00
11922;DHT22;6021;51.182;3.160;2023-08-17T12:16:14;21.70;1.00
11922;DHT22;6021;51.182;3.160;2023-08-17T12:18:50;21.80;1.00
11922;DHT22;6021;51.182;3.160;2023-08-17T12:21:22;21.70;1.00
11922;DHT22;6021;51.182;3.160;2023-08-17T12:23:51;21.70;1.00
11922;DHT22;6021;51.182;3.160;2023-08-17T12:26:20;21.60;1.00
11922;DHT22;6021;51.182;3.160;2023-08-17T12:28:49;21.60;1.00
11922;DHT22;6021;51.182;3.160;2023-08-17T12:31:24;21.50;1.00
11922;DHT22;6021;51.182;3.160;2023-08-17T12:33:52;21.50;1.00
11922;DHT22;6021;51.182;3.160;2023-08-17T12:36:21;21.50;1.00
11922;DHT22;6021;51.182;3.160;2023-08-17T12:38:49;21.50;1.00
11922;DHT22;6021;51.182;3.160;2023-08-17T12:41:17;21.50;1.00
11922;DHT22;6021;51.182;3.160;2023-08-17T12:43:46;21.60;1.00
11922;DHT22;6021;51.182;3.160;2023-08-17T12:46:14;21.70;1.00
11922;DHT22;6021;51.182;3.160;2023-08-17T12:48:43;21.70;1.00
11922;DHT22;6021;51.182;3.160;2023-08-17T12:51:11;21.80;1.00
11922;DHT22;6021;51.182;3.160;2023-08-17T12:53:40;21.90;1.00
11922;DHT22;6021;51.182;3.160;2023-08-17T12:56:09;21.90;1.00
11922;DHT22;6021;51.182;3.160;2023-08-17T12:58:38;21.90;1.00
11922;DHT22;6021;51.182;3.160;2023-08-17T13:01:06;21.90;1.00
11922;DHT22;6021;51.182;3.160;2023-08-17T13:03:35;21.90;1.00
11922;DHT22;6021;51.182;3.160;2023-08-17T13:06:03;21.90;1.00
11922;DHT22;6021;51.182;3.160;2023-08-17T13:08:32;22.00;1.00
11922;DHT22;6021;51.182;3.160;2023-08-17T13:11:00;21.80;1.00
11922;DHT22;6021;51.182;3.160;2023-08-17T13:13:29;21.70;1.00
11922;DHT22;6021;51.182;3.160;2023-08-17T13:15:57;21.70;1.00
11922;DHT22;6021;51.182;3.160;2023-08-17T13:18:25;21.70;1.00
11922;DHT22;6021;51.182;3.160;2023-08-17T13:20:55;21.70;1.00
11922;DHT22;6021;51.182;3.160;2023-08-17T13:23:24;21.70;1.00
11922;DHT22;6021;51.182;3.160;2023-08-17T13:25:52;21.60;1.00
11922;DHT22;6021;51.182;3.160;2023-08-17T13:28:21;21.50;1.00
11922;DHT22;6021;51.182;3.160;2023-08-17T13:30:49;21.40;1.00
11922;DHT22;6021;51.182;3.160;2023-08-17T13:33:17;21.30;1.00
11922;DHT22;6021;51.182;3.160;2023-08-17T13:35:46;21.40;1.00
11922;DHT22;6021;51.182;3.160;2023-08-17T13:38:14;21.30;1.00
11922;DHT22;6021;51.182;3.160;2023-08-17T13:40:42;21.40;1.00
11922;DHT22;6021;51.182;3.160;2023-08-17T13:43:11;21.30;1.00
11922;DHT22;6021;51.182;3.160;2023-08-17T13:45:39;21.20;1.00
11922;DHT22;6021;51.182;3.160;2023-08-17T13:48:08;21.10;1.00
11922;DHT22;6021;51.182;3.160;2023-08-17T13:50:38;21.10;1.00
11922;DHT22;6021;51.182;3.160;2023-08-17T13:53:07;21.00;1.50
11922;DHT22;6021;51.182;3.160;2023-08-17T13:55:35;21.00;1.00
11922;DHT22;6021;51.182;3.160;2023-08-17T13:58:04;21.00;1.00
11922;DHT22;6021;51.182;3.160;2023-08-17T14:00:32;20.90;2.10
11922;DHT22;6021;51.182;3.160;2023-08-17T14:03:00;21.10;1.00
11922;DHT22;6021;51.182;3.160;2023-08-17T14:06:27;21.10;1.00
11922;DHT22;6021;51.182;3.160;2023-08-17T14:08:56;21.10;1.00
11922;DHT22;6021;51.182;3.160;2023-08-17T14:11:24;21.10;2.10
11922;DHT22;6021;51.182;3.160;2023-08-17T14:13:52;21.10;8.10
11922;DHT22;6021;51.182;3.160;2023-08-17T14:16:21;21.20;7.50
11922;DHT22;6021;51.182;3.160;2023-08-17T14:18:49;21.20;13.00
11922;DHT22;6021;51.182;3.160;2023-08-17T14:21:17;21.20;6.10
11922;DHT22;6021;51.182;3.160;2023-08-17T14:23:46;21.20;1.00
11922;DHT22;6021;51.182;3.160;2023-08-17T14:26:14;21.20;1.00
11922;DHT22;6021;51.182;3.160;2023-08-17T14:28:43;21.20;1.00
11922;DHT22;6021;51.182;3.160;2023-08-17T14:31:11;21.30;1.00
11922;DHT22;6021;51.182;3.160;2023-08-17T14:33:41;21.40;1.00
11922;DHT22;6021;51.182;3.160;2023-08-17T14:36:09;21.30;1.00
11922;DHT22;6021;51.182;3.160;2023-08-17T14:38:38;21.40;1.00
11922;DHT22;6021;51.182;3.160;2023-08-17T14:41:07;21.30;1.00
11922;DHT22;6021;51.182;3.160;2023-08-17T14:43:36;21.30;1.00
11922;DHT22;6021;51.182;3.160;2023-08-17T14:46:05;21.30;1.00
11922;DHT22;6021;51.182;3.160;2023-08-17T14:48:33;21.40;1.00
11922;DHT22;6021;51.182;3.160;2023-08-17T14:51:01;21.30;1.00
11922;DHT22;6021;51.182;3.160;2023-08-17T14:53:30;21.20;1.00
11922;DHT22;6021;51.182;3.160;2023-08-17T14:55:58;21.20;1.00
11922;DHT22;6021;51.182;3.160;2023-08-17T14:58:27;21.20;1.00
11922;DHT22;6021;51.182;3.160;2023-08-17T15:00:55;21.20;1.00
11922;DHT22;6021;51.182;3.160;2023-08-17T15:03:24;21.20;4.60
11922;DHT22;6021;51.182;3.160;2023-08-17T15:05:52;21.20;9.40
11922;DHT22;6021;51.182;3.160;2023-08-17T15:08:21;21.20;11.80
11922;DHT22;6021;51.182;3.160;2023-08-17T15:10:49;21.10;18.40
11922;DHT22;6021;51.182;3.160;2023-08-17T15:13:18;21.10;9.60
11922;DHT22;6021;51.182;3.160;2023-08-17T15:15:46;21.10;16.70
11922;DHT22;6021;51.182;3.160;2023-08-17T15:18:14;21.10;13.20
11922;DHT22;6021;51.182;3.160;2023-08-17T15:20:43;21.10;10.90
11922;DHT22;6021;51.182;3.160;2023-08-17T15:23:11;21.10;4.40
11922;DHT22;6021;51.182;3.160;2023-08-17T15:25:40;21.10;7.50
11922;DHT22;6021;51.182;3.160;2023-08-17T15:28:08;21.00;9.40
11922;DHT22;6021;51.182;3.160;2023-08-17T15:30:36;21.10;4.80
11922;DHT22;6021;51.182;3.160;2023-08-17T15:33:05;21.10;7.30
11922;DHT22;6021;51.182;3.160;2023-08-17T15:35:33;21.00;15.10
11922;DHT22;6021;51.182;3.160;2023-08-17T15:38:01;21.00;14.60
11922;DHT22;6021;51.182;3.160;2023-08-17T15:40:30;21.00;16.20
11922;DHT22;6021;51.182;3.160;2023-08-17T15:42:58;21.00;19.10
11922;DHT22;6021;51.182;3.160;2023-08-17T15:45:26;21.00;18.00
11922;DHT22;6021;51.182;3.160;2023-08-17T15:47:55;20.90;23.40
11922;DHT22;6021;51.182;3.160;2023-08-17T15:50:23;20.90;19.10
11922;DHT22;6021;51.182;3.160;2023-08-17T15:52:52;20.90;38.60
11922;DHT22;6021;51.182;3.160;2023-08-17T15:55:20;21.00;36.00
11922;DHT22;6021;51.182;3.160;2023-08-17T15:57:48;21.00;26.10
11922;DHT22;6021;51.182;3.160;2023-08-17T16:00:17;20.90;32.80
11922;DHT22;6021;51.182;3.160;2023-08-17T16:02:45;21.10;27.50
11922;DHT22;6021;51.182;3.160;2023-08-17T16:05:14;21.10;15.20
11922;DHT22;6021;51.182;3.160;2023-08-17T16:07:42;21.10;9.70
11922;DHT22;6021;51.182;3.160;2023-08-17T16:10:10;21.00;13.40
11922;DHT22;6021;51.182;3.160;2023-08-17T16:12:39;21.10;8.30